Time;durP1;ratioP1;P1;durP2;ratioP2;P2;SDS_P1;SDS_P2;PMS_P1;PMS_P2;Temp;Humidity;BMP_temperature;BMP_pressure;BME280_temperature;BME280_humidity;BME280_pressure;Samples;Min_cycle;Max_cycle;Signal;HPM_P1;HPM_P2
2022/08/12 00:44:25;;;;;;;5.10;4.90;;;24.30;43.00;;;;;;4765808;29;20660;-62
2022/08/12 00:47:12;;;;;;;4.90;4.70;;;24.30;43.00;;;;;;4751107;29;20494;-75
2022/08/12 00:49:38;;;;;;;5.37;5.17;;;24.30;43.00;;;;;;4739305;29;20549;-63
2022/08/12 00:52:12;;;;;;;5.27;5.07;;;24.40;43.10;;;;;;4756664;29;20469;-60
2022/08/12 00:54:53;;;;;;;4.93;4.73;;;24.30;43.00;;;;;;4709457;29;20467;-62
2022/08/12 00:57:28;;;;;;;5.10;4.90;;;24.30;43.00;;;;;;4750991;29;20519;-72
2022/08/12 00:59:57;;;;;;;5.07;4.87;;;24.30;43.00;;;;;;4751732;29;20472;-59
2022/08/12 01:02:32;;;;;;;4.33;4.13;;;24.30;43.00;;;;;;4752906;29;20495;-64
2022/08/12 01:13:17;;;;;;;4.73;4.53;;;24.30;43.00;;;;;;4754132;29;20494;-66
2022/08/12 01:15:45;;;;;;;5.33;5.03;;;24.30;43.00;;;;;;4748892;29;20476;-67
2022/08/12 01:18:13;;;;;;;4.70;4.50;;;24.30;43.00;;;;;;4743651;29;21097;-76
2022/08/12 01:20:42;;;;;;;4.20;4.00;;;24.30;43.00;;;;;;4748337;29;20533;-64
2022/08/12 01:23:18;;;;;;;5.00;4.80;;;24.30;43.00;;;;;;4755899;29;20459;-75
2022/08/12 01:25:48;;;;;;;4.60;4.40;;;24.30;43.00;;;;;;4757541;29;20480;-63
2022/08/12 01:28:16;;;;;;;4.93;4.73;;;24.30;43.00;;;;;;4748456;29;20471;-60
2022/08/12 01:30:43;;;;;;;5.20;5.00;;;24.30;43.00;;;;;;4748361;29;21211;-64
2022/08/12 01:33:16;;;;;;;4.77;4.57;;;24.30;43.00;;;;;;4748120;29;20944;-62
2022/08/12 01:35:48;;;;;;;4.70;4.50;;;24.30;43.00;;;;;;4748298;29;20472;-63
2022/08/12 01:38:19;;;;;;;5.10;4.90;;;24.30;43.00;;;;;;4743891;29;20974;-59
2022/08/12 01:40:46;;;;;;;5.17;4.93;;;24.30;43.00;;;;;;4754036;29;20564;-70
2022/08/12 01:43:20;;;;;;;5.40;5.07;;;24.30;43.00;;;;;;4751035;29;20589;-63
2022/08/12 01:46:05;;;;;;;5.00;4.80;;;24.30;43.00;;;;;;4751044;29;20495;-75
2022/08/12 01:48:52;;;;;;;5.60;5.30;;;24.30;43.00;;;;;;4749342;29;20492;-62
2022/08/12 01:51:39;;;;;;;5.57;5.27;;;24.30;43.00;;;;;;4746211;29;20472;-76
2022/08/12 01:54:12;;;;;;;5.20;4.90;;;24.30;43.00;;;;;;4759996;29;20534;-58
2022/08/12 01:56:49;;;;;;;5.17;4.97;;;24.30;43.00;;;;;;4754856;29;20468;-75
2022/08/12 01:59:49;;;;;;;4.97;4.77;;;24.30;43.00;;;;;;4732580;29;20470;-68
2022/08/12 02:02:29;;;;;;;4.67;4.47;;;24.30;43.00;;;;;;4744738;29;20476;-61
2022/08/12 02:12:12;;;;;;;5.00;4.80;;;24.30;43.00;;;;;;4699092;29;20542;-59
2022/08/12 02:15:05;;;;;;;4.87;4.57;;;24.30;43.00;;;;;;4729563;29;20959;-59
2022/08/12 02:17:52;;;;;;;4.73;4.53;;;24.30;43.00;;;;;;4732534;29;20585;-67
2022/08/12 02:20:55;;;;;;;4.53;4.33;;;24.30;43.00;;;;;;4731714;29;20467;-74
2022/08/12 02:23:27;;;;;;;5.37;5.17;;;24.30;43.00;;;;;;4712410;29;20468;-64
2022/08/12 02:29:03;;;;;;;4.90;4.70;;;24.30;43.00;;;;;;4712463;29;20505;-65
2022/08/12 02:31:47;;;;;;;4.53;4.33;;;24.30;43.00;;;;;;4735443;29;20885;-63
2022/08/12 02:46:29;;;;;;;5.13;4.93;;;24.30;43.00;;;;;;4717842;29;20620;-63
2022/08/12 02:49:09;;;;;;;5.10;4.80;;;24.30;43.00;;;;;;4745062;29;21105;-62
2022/08/12 02:51:40;;;;;;;4.40;4.20;;;24.30;43.00;;;;;;4750970;29;20566;-61
2022/08/12 02:54:06;;;;;;;4.77;4.57;;;24.30;43.00;;;;;;4749505;29;20511;-60
2022/08/12 02:56:36;;;;;;;5.10;4.90;;;24.30;43.00;;;;;;4750315;29;20579;-78
2022/08/12 02:59:03;;;;;;;4.73;4.53;;;24.30;43.00;;;;;;4746505;29;20584;-62
2022/08/12 03:01:34;;;;;;;5.40;5.20;;;24.30;43.00;;;;;;4748464;29;20476;-60
2022/08/12 03:04:04;;;;;;;5.07;4.87;;;24.30;43.00;;;;;;4742972;29;21651;-65
2022/08/12 03:06:42;;;;;;;4.97;4.77;;;24.30;43.00;;;;;;4753298;29;20480;-60
2022/08/12 03:09:12;;;;;;;5.50;5.30;;;24.30;43.00;;;;;;4752651;29;20468;-64
2022/08/12 03:11:44;;;;;;;4.40;4.20;;;24.30;43.00;;;;;;4755508;29;20473;-62
2022/08/12 03:14:13;;;;;;;4.97;4.77;;;24.30;43.00;;;;;;4754043;29;20511;-62
2022/08/12 03:16:40;;;;;;;4.97;4.77;;;24.30;43.00;;;;;;4755318;29;20702;-59
2022/08/12 03:19:07;;;;;;;5.33;5.13;;;24.30;43.00;;;;;;4749510;29;20479;-58
2022/08/12 03:21:38;;;;;;;5.00;4.80;;;24.30;43.00;;;;;;4748107;29;20477;-70
2022/08/12 03:24:07;;;;;;;5.07;4.87;;;24.30;43.00;;;;;;4746673;29;20472;-64
2022/08/12 03:26:34;;;;;;;4.73;4.53;;;24.30;43.00;;;;;;4743097;29;20488;-62
2022/08/12 03:29:05;;;;;;;4.60;4.40;;;24.30;43.00;;;;;;4747728;29;20533;-58
2022/08/12 03:31:32;;;;;;;4.80;4.60;;;24.30;43.00;;;;;;4742914;29;20984;-69
2022/08/12 03:34:22;;;;;;;5.20;5.00;;;24.30;43.00;;;;;;4744480;29;20477;-59
2022/08/12 03:36:49;;;;;;;4.83;4.63;;;24.30;43.00;;;;;;4743889;29;20472;-69
2022/08/12 03:42:00;;;;;;;5.00;4.70;;;24.30;43.00;;;;;;4745152;29;21033;-66
2022/08/12 04:01:51;;;;;;;4.97;4.77;;;24.30;43.00;;;;;;4745913;29;20480;-60
2022/08/12 04:04:17;;;;;;;5.40;5.20;;;24.30;43.00;;;;;;4749516;29;20476;-68
2022/08/12 04:06:44;;;;;;;4.60;4.40;;;24.30;43.00;;;;;;4754561;29;20479;-70
2022/08/12 04:09:41;;;;;;;4.93;4.73;;;24.30;43.00;;;;;;4747290;29;20387;-61
2022/08/12 04:14:57;;;;;;;5.27;5.07;;;24.30;43.00;;;;;;4752505;29;20568;-60
2022/08/12 04:17:25;;;;;;;5.30;5.10;;;24.30;43.00;;;;;;4754821;29;20483;-65
2022/08/12 04:19:51;;;;;;;4.90;4.70;;;24.30;43.00;;;;;;4748007;29;21067;-65
2022/08/12 04:22:18;;;;;;;5.27;5.07;;;24.40;43.10;;;;;;4752741;29;20482;-61
2022/08/12 04:24:45;;;;;;;4.83;4.53;;;24.40;43.10;;;;;;4753116;29;21956;-60
2022/08/12 04:27:11;;;;;;;4.83;4.63;;;24.40;43.10;;;;;;4755176;29;20254;-61
2022/08/12 04:29:38;;;;;;;4.87;4.60;;;24.40;43.10;;;;;;4754389;29;20476;-59
2022/08/12 04:32:05;;;;;;;5.07;4.87;;;24.40;43.10;;;;;;4751076;29;20259;-59
2022/08/12 04:34:32;;;;;;;5.03;4.83;;;24.40;43.10;;;;;;4753396;29;21411;-67
2022/08/12 04:36:57;;;;;;;4.70;4.50;;;24.40;43.10;;;;;;4750114;29;20484;-65
2022/08/12 04:42:39;;;;;;;5.23;5.03;;;24.50;43.20;;;;;;4766113;29;20837;-60
2022/08/12 04:45:06;;;;;;;5.10;4.90;;;24.50;43.20;;;;;;4759098;29;20951;-59
2022/08/12 04:47:32;;;;;;;4.90;4.70;;;24.50;44.00;;;;;;4761325;29;20486;-63
2022/08/12 04:49:58;;;;;;;4.97;4.77;;;24.50;43.20;;;;;;4767075;29;20479;-58
2022/08/12 04:52:24;;;;;;;5.43;5.13;;;24.50;43.20;;;;;;4766356;29;20473;-59
2022/08/12 04:54:50;;;;;;;4.47;4.27;;;24.50;43.20;;;;;;4758113;29;20487;-58
2022/08/12 04:57:16;;;;;;;5.30;5.10;;;24.50;43.20;;;;;;4762667;29;20981;-68
2022/08/12 04:59:42;;;;;;;5.10;4.90;;;24.50;43.20;;;;;;4765611;29;20489;-61
2022/08/12 05:02:08;;;;;;;5.40;5.20;;;24.50;43.20;;;;;;4753988;29;20231;-58
2022/08/12 05:04:35;;;;;;;5.40;5.10;;;24.50;43.20;;;;;;4766751;29;20483;-59
2022/08/12 05:07:01;;;;;;;5.10;4.90;;;24.50;43.20;;;;;;4763959;29;20251;-57
2022/08/12 05:09:27;;;;;;;5.13;4.93;;;24.50;43.20;;;;;;4761000;29;20780;-61
2022/08/12 05:11:54;;;;;;;5.53;5.30;;;24.50;43.20;;;;;;4765131;29;21042;-58
2022/08/12 05:14:20;;;;;;;5.10;4.90;;;24.50;43.20;;;;;;4762385;29;20611;-71
2022/08/12 05:16:45;;;;;;;5.20;5.00;;;24.50;43.20;;;;;;4758718;29;20473;-61
2022/08/12 05:19:12;;;;;;;6.33;5.00;;;24.50;43.20;;;;;;4764513;29;20263;-59
2022/08/12 05:21:38;;;;;;;5.07;4.87;;;24.50;43.20;;;;;;4758253;29;20235;-61
2022/08/12 05:24:03;;;;;;;5.20;5.00;;;24.50;43.20;;;;;;4763739;29;20524;-58
2022/08/12 05:26:29;;;;;;;4.80;4.60;;;24.50;43.20;;;;;;4757917;29;20500;-65
2022/08/12 05:28:54;;;;;;;5.13;4.83;;;24.50;43.20;;;;;;4763485;29;20335;-67
2022/08/12 05:31:20;;;;;;;5.10;4.90;;;24.50;43.20;;;;;;4761707;29;20701;-58
2022/08/12 05:33:46;;;;;;;5.87;5.57;;;24.50;43.20;;;;;;4765260;29;20239;-64
2022/08/12 05:36:14;;;;;;;5.30;5.00;;;24.40;43.10;;;;;;4765898;29;20260;-64
2022/08/12 05:38:55;;;;;;;4.83;4.57;;;24.50;43.20;;;;;;4759817;29;20236;-66
2022/08/12 05:41:30;;;;;;;5.60;5.30;;;24.50;43.20;;;;;;4759351;29;20470;-66
2022/08/12 05:44:02;;;;;;;5.47;5.17;;;24.40;43.10;;;;;;4763667;29;20448;-66
2022/08/12 05:46:30;;;;;;;5.17;4.70;;;24.40;43.00;;;;;;4766145;29;20495;-64
2022/08/12 05:48:59;;;;;;;5.30;5.10;;;24.40;42.90;;;;;;4764731;29;20504;-66
2022/08/12 05:51:34;;;;;;;5.30;5.00;;;24.40;42.90;;;;;;4761255;29;20537;-61
2022/08/12 05:54:00;;;;;;;5.57;5.10;;;24.40;42.80;;;;;;4765485;29;20494;-60
2022/08/12 05:56:31;;;;;;;5.23;4.83;;;24.40;42.80;;;;;;4761930;29;21023;-61
2022/08/12 05:58:58;;;;;;;5.60;5.20;;;24.40;42.80;;;;;;4769471;29;20243;-59
2022/08/12 06:01:25;;;;;;;5.10;4.80;;;24.40;42.80;;;;;;4758743;29;20500;-66
2022/08/12 06:03:51;;;;;;;4.90;4.70;;;24.40;42.80;;;;;;4763711;29;20460;-59
2022/08/12 06:06:18;;;;;;;5.23;5.03;;;24.50;42.70;;;;;;4761725;29;20507;-63
2022/08/12 06:08:52;;;;;;;5.13;4.93;;;24.50;42.80;;;;;;4763071;29;20484;-62
2022/08/12 06:11:19;;;;;;;4.97;4.77;;;24.50;42.80;;;;;;4753158;29;20469;-69
2022/08/12 06:13:44;;;;;;;4.80;4.60;;;24.50;42.80;;;;;;4761912;29;20468;-70
2022/08/12 06:16:13;;;;;;;5.63;5.33;;;24.50;42.80;;;;;;4764095;29;20482;-61
2022/08/12 06:18:40;;;;;;;5.10;4.80;;;24.50;42.80;;;;;;4750608;29;20244;-63
2022/08/12 06:21:09;;;;;;;4.60;4.30;;;24.50;42.90;;;;;;4757327;29;20472;-71
2022/08/12 06:23:36;;;;;;;5.57;5.27;;;24.50;42.90;;;;;;4763386;29;20475;-63
2022/08/12 06:26:03;;;;;;;5.47;5.27;;;24.50;43.00;;;;;;4760976;29;20486;-58
2022/08/12 06:28:29;;;;;;;4.97;4.77;;;24.50;43.00;;;;;;4764143;29;20599;-66
2022/08/12 06:30:56;;;;;;;5.57;5.27;;;24.50;42.90;;;;;;4763266;29;20819;-61
2022/08/12 06:33:23;;;;;;;4.87;4.67;;;24.50;43.00;;;;;;4761404;29;20465;-67
2022/08/12 06:35:49;;;;;;;5.80;5.50;;;24.50;43.00;;;;;;4764657;29;20480;-59
2022/08/12 06:38:24;;;;;;;4.93;4.63;;;24.50;43.10;;;;;;4771937;29;20542;-59
2022/08/12 06:43:42;;;;;;;5.40;5.00;;;24.50;43.70;;;;;;4764467;29;20511;-70
2022/08/12 06:46:09;;;;;;;5.27;5.07;;;24.50;43.10;;;;;;4758438;29;20468;-59
2022/08/12 06:48:36;;;;;;;5.60;5.13;;;24.50;43.10;;;;;;4766205;29;20528;-65
2022/08/12 06:51:02;;;;;;;4.90;4.50;;;24.50;43.00;;;;;;4764052;29;20474;-60
2022/08/12 06:53:32;;;;;;;4.90;4.60;;;24.50;43.00;;;;;;4763614;29;20600;-60
2022/08/12 06:55:59;;;;;;;4.67;4.37;;;24.50;43.10;;;;;;4764197;29;20464;-63
2022/08/12 06:58:30;;;;;;;6.03;5.00;;;24.50;43.10;;;;;;4762445;29;20508;-61
2022/08/12 07:00:57;;;;;;;5.50;4.80;;;24.50;43.00;;;;;;4751932;29;20604;-69
2022/08/12 07:03:27;;;;;;;5.20;4.80;;;24.50;43.00;;;;;;4760593;29;20460;-61
2022/08/12 07:05:58;;;;;;;4.67;4.47;;;24.50;42.90;;;;;;4757108;29;20483;-69
2022/08/12 07:08:29;;;;;;;5.00;4.80;;;24.50;43.70;;;;;;4759178;29;20515;-65
2022/08/12 07:11:00;;;;;;;4.93;4.70;;;24.50;42.80;;;;;;4762513;29;21670;-59
2022/08/12 07:13:36;;;;;;;5.60;5.30;;;24.50;42.90;;;;;;4762405;29;20467;-65
2022/08/12 07:16:02;;;;;;;4.90;4.60;;;24.50;42.90;;;;;;4761193;29;20970;-59
2022/08/12 07:18:34;;;;;;;4.90;4.70;;;24.50;43.00;;;;;;4764930;29;20481;-60
2022/08/12 07:21:05;;;;;;;4.70;4.50;;;24.50;43.00;;;;;;4763143;29;20471;-59
2022/08/12 07:23:34;;;;;;;4.70;4.50;;;24.50;43.10;;;;;;4766686;29;20472;-61
2022/08/12 07:26:02;;;;;;;4.50;4.30;;;24.50;43.00;;;;;;4763129;29;20468;-58
2022/08/12 07:28:32;;;;;;;5.47;4.70;;;24.50;43.10;;;;;;4761714;29;20480;-68
2022/08/12 07:30:58;;;;;;;5.33;5.03;;;24.50;43.00;;;;;;4767166;29;20468;-61
2022/08/12 07:33:27;;;;;;;5.40;4.90;;;24.50;43.10;;;;;;4763506;29;20518;-60
2022/08/12 07:35:53;;;;;;;5.07;4.80;;;24.50;43.10;;;;;;4760887;29;20487;-62
2022/08/12 07:38:26;;;;;;;4.70;4.50;;;24.50;43.10;;;;;;4762471;29;20500;-61
2022/08/12 07:41:20;;;;;;;4.73;4.50;;;24.50;43.10;;;;;;4765032;29;20474;-63
2022/08/12 07:43:55;;;;;;;4.67;4.47;;;24.50;43.20;;;;;;4758782;29;20482;-58
2022/08/12 07:46:37;;;;;;;5.07;4.87;;;24.50;43.10;;;;;;4765031;29;20885;-58
2022/08/12 07:49:10;;;;;;;4.90;4.50;;;24.50;43.10;;;;;;4761753;29;20487;-61
2022/08/12 07:51:35;;;;;;;4.70;4.40;;;24.50;43.10;;;;;;4764380;29;20510;-71
2022/08/12 07:54:07;;;;;;;4.50;4.30;;;24.50;43.20;;;;;;4767074;29;20570;-67
2022/08/12 07:56:34;;;;;;;5.20;4.90;;;24.50;43.20;;;;;;4764591;29;20317;-70
2022/08/12 07:59:01;;;;;;;4.60;4.40;;;24.50;43.20;;;;;;4763339;29;20482;-67
2022/08/12 08:01:28;;;;;;;5.00;4.80;;;24.50;43.20;;;;;;4770935;29;20470;-62
2022/08/12 08:06:41;;;;;;;4.67;4.47;;;24.50;43.20;;;;;;4768321;29;20493;-61
2022/08/12 08:09:10;;;;;;;4.50;4.30;;;24.50;43.20;;;;;;4765865;29;20469;-58
2022/08/12 08:14:20;;;;;;;5.40;5.10;;;24.50;43.20;;;;;;4752878;29;20475;-59
2022/08/12 08:16:49;;;;;;;5.47;5.03;;;24.40;43.10;;;;;;4763722;29;20459;-69
2022/08/12 08:19:18;;;;;;;4.70;4.50;;;24.50;43.20;;;;;;4762344;29;20508;-59
2022/08/12 08:21:44;;;;;;;4.80;4.60;;;24.50;43.20;;;;;;4762882;29;20475;-61
2022/08/12 08:24:15;;;;;;;5.70;5.50;;;24.40;43.10;;;;;;4762885;29;20864;-58
2022/08/12 08:26:46;;;;;;;4.63;4.43;;;24.40;43.10;;;;;;4764438;29;20568;-58
2022/08/12 08:29:12;;;;;;;4.90;4.57;;;24.40;43.10;;;;;;4767019;29;20816;-68
2022/08/12 08:31:42;;;;;;;4.57;4.30;;;24.40;43.50;;;;;;4764772;29;20532;-59
2022/08/12 08:34:08;;;;;;;4.40;4.20;;;24.40;43.10;;;;;;4764322;29;23169;-64
2022/08/12 08:36:34;;;;;;;4.93;4.50;;;24.40;43.10;;;;;;4767451;29;20476;-62
2022/08/12 08:39:00;;;;;;;5.13;4.83;;;24.40;43.10;;;;;;4763258;29;20474;-71
2022/08/12 08:44:10;;;;;;;4.83;4.63;;;24.40;43.10;;;;;;4768455;29;20706;-59
2022/08/12 08:46:36;;;;;;;4.90;4.70;;;24.40;43.10;;;;;;4768863;29;20582;-62
2022/08/12 08:49:03;;;;;;;4.07;3.87;;;24.40;43.10;;;;;;4763800;29;20255;-60
2022/08/12 08:51:30;;;;;;;4.50;4.30;;;24.40;43.10;;;;;;4764517;29;20287;-61
2022/08/12 08:53:55;;;;;;;4.77;4.47;;;24.40;43.10;;;;;;4768814;29;20509;-58
2022/08/12 08:56:21;;;;;;;4.40;4.20;;;24.40;43.10;;;;;;4768600;29;20467;-61
2022/08/12 08:58:48;;;;;;;4.03;3.73;;;24.40;43.10;;;;;;4765609;29;20250;-63
2022/08/12 09:01:19;;;;;;;3.67;3.47;;;24.40;43.00;;;;;;4771793;29;20463;-60
2022/08/12 09:03:45;;;;;;;3.50;3.30;;;24.40;43.00;;;;;;4759119;29;20493;-57
2022/08/12 09:06:13;;;;;;;4.27;4.03;;;24.40;43.10;;;;;;4766851;29;21031;-65
2022/08/12 09:08:39;;;;;;;3.80;3.60;;;24.40;43.00;;;;;;4764662;29;20275;-63
2022/08/12 09:13:49;;;;;;;3.80;3.60;;;24.40;43.00;;;;;;4758133;29;20488;-63
2022/08/12 09:16:16;;;;;;;4.00;3.80;;;24.40;43.00;;;;;;4765296;29;20472;-70
2022/08/12 09:18:42;;;;;;;4.53;4.33;;;24.40;43.00;;;;;;4763094;29;20893;-58
2022/08/12 09:21:08;;;;;;;4.00;3.80;;;24.40;43.10;;;;;;4767653;29;20493;-59
2022/08/12 09:23:35;;;;;;;4.63;4.43;;;24.40;43.00;;;;;;4766837;29;20236;-62
2022/08/12 09:26:01;;;;;;;3.90;3.70;;;24.40;43.00;;;;;;4763780;29;20568;-70
2022/08/12 09:28:27;;;;;;;3.47;3.37;;;24.40;43.10;;;;;;4752007;29;20499;-59
2022/08/12 09:30:57;;;;;;;4.50;4.30;;;24.40;43.00;;;;;;4765705;29;20961;-70
2022/08/12 09:33:32;;;;;;;4.00;3.80;;;24.40;43.00;;;;;;4761704;29;20235;-65
2022/08/12 09:35:58;;;;;;;3.30;3.10;;;24.40;43.10;;;;;;4764018;29;20498;-62
2022/08/12 09:38:24;;;;;;;4.17;3.97;;;24.40;43.10;;;;;;4768229;29;20475;-62
2022/08/12 09:40:50;;;;;;;3.83;3.63;;;24.40;43.10;;;;;;4760102;29;20592;-59
2022/08/12 09:46:01;;;;;;;3.73;3.53;;;24.40;43.10;;;;;;4756918;29;20288;-60
2022/08/12 09:48:27;;;;;;;4.33;4.13;;;24.40;43.10;;;;;;4753473;29;20478;-60
2022/08/12 09:50:53;;;;;;;3.50;3.40;;;24.40;43.10;;;;;;4763417;29;20460;-59
2022/08/12 09:53:24;;;;;;;4.20;4.00;;;24.40;43.10;;;;;;4760344;29;21073;-66
2022/08/12 09:55:55;;;;;;;4.43;4.23;;;24.40;43.10;;;;;;4751960;29;20376;-71
2022/08/12 09:58:27;;;;;;;3.93;3.73;;;24.40;43.10;;;;;;4766079;29;20548;-65
2022/08/12 10:00:55;;;;;;;4.20;3.83;;;24.40;43.10;;;;;;4761128;29;20467;-72
2022/08/12 10:03:21;;;;;;;4.07;3.87;;;24.40;43.10;;;;;;4762720;29;20461;-65
2022/08/12 10:05:48;;;;;;;3.87;3.67;;;24.40;43.10;;;;;;4764386;29;20543;-69
2022/08/12 10:08:15;;;;;;;3.77;3.57;;;24.40;43.10;;;;;;4766803;29;20480;-62
2022/08/12 10:13:41;;;;;;;3.20;3.00;;;24.30;43.00;;;;;;4763562;29;20559;-58
2022/08/12 10:16:10;;;;;;;3.00;2.90;;;24.30;42.90;;;;;;4761989;29;20969;-68
2022/08/12 10:18:36;;;;;;;5.97;3.20;;;24.30;42.80;;;;;;4762620;29;20486;-60
2022/08/12 10:21:09;;;;;;;2.83;2.73;;;24.30;42.30;;;;;;4759732;29;20476;-63
2022/08/12 10:23:36;;;;;;;3.20;3.07;;;24.30;42.10;;;;;;4765221;29;20955;-63
2022/08/12 10:31:31;;;;;;;2.60;2.50;;;24.30;41.60;;;;;;4761485;29;20505;-58
2022/08/12 10:33:57;;;;;;;3.20;3.00;;;24.30;41.50;;;;;;4761198;29;20472;-67
2022/08/12 10:36:23;;;;;;;2.67;2.57;;;24.40;41.40;;;;;;4764432;29;20850;-61
2022/08/12 10:38:53;;;;;;;3.33;3.00;;;24.30;41.10;;;;;;4760741;29;20263;-64
2022/08/12 10:44:04;;;;;;;2.50;2.40;;;24.30;40.70;;;;;;4765053;29;20471;-61
2022/08/12 10:46:31;;;;;;;2.73;2.63;;;24.30;40.60;;;;;;4760510;29;20469;-58
2022/08/12 10:48:58;;;;;;;2.63;2.53;;;24.30;40.60;;;;;;4760809;29;20549;-59
2022/08/12 10:51:25;;;;;;;2.57;2.47;;;24.30;40.50;;;;;;4762709;29;20464;-58
2022/08/12 10:53:55;;;;;;;2.67;2.57;;;24.30;40.30;;;;;;4755653;29;20457;-58
2022/08/12 10:56:21;;;;;;;2.97;2.77;;;24.40;40.30;;;;;;4756784;29;20478;-59
2022/08/12 10:58:47;;;;;;;3.00;2.87;;;24.40;40.30;;;;;;4762352;29;20496;-64
2022/08/12 11:01:14;;;;;;;2.70;2.60;;;24.40;40.30;;;;;;4764586;29;20652;-61
2022/08/12 11:03:40;;;;;;;2.40;2.30;;;24.30;40.20;;;;;;4767012;29;20356;-62
2022/08/12 11:06:08;;;;;;;4.03;3.83;;;24.30;40.30;;;;;;4762316;29;20475;-58
2022/08/12 11:08:37;;;;;;;2.63;2.43;;;24.40;40.60;;;;;;4762206;29;20560;-62
2022/08/12 11:11:04;;;;;;;2.80;2.70;;;24.30;40.40;;;;;;4763144;29;20547;-61
2022/08/12 11:13:30;;;;;;;2.90;2.70;;;24.40;40.50;;;;;;4758927;29;20575;-61
2022/08/12 11:15:56;;;;;;;3.40;3.20;;;24.40;40.40;;;;;;4760952;29;20510;-64
2022/08/12 11:18:22;;;;;;;2.80;2.70;;;24.40;40.50;;;;;;4764347;29;20544;-61
2022/08/12 11:20:48;;;;;;;2.30;2.20;;;24.40;40.50;;;;;;4760762;29;20685;-66
2022/08/12 11:23:14;;;;;;;3.37;3.17;;;24.40;40.50;;;;;;4765899;29;20471;-61
2022/08/12 11:25:43;;;;;;;3.37;3.20;;;24.40;40.60;;;;;;4766982;29;20240;-58
2022/08/12 11:28:09;;;;;;;3.30;3.20;;;24.40;40.80;;;;;;4763245;29;20247;-60
2022/08/12 11:30:34;;;;;;;3.90;3.70;;;24.40;40.90;;;;;;4766589;29;20480;-65
2022/08/12 11:33:00;;;;;;;3.33;3.13;;;24.40;41.00;;;;;;4765493;29;20234;-57
2022/08/12 11:35:26;;;;;;;4.00;3.80;;;24.40;41.10;;;;;;4766923;29;20484;-72
2022/08/12 11:37:53;;;;;;;4.23;2.73;;;24.40;41.20;;;;;;4765281;29;20250;-57
2022/08/12 11:40:18;;;;;;;3.30;3.10;;;24.40;41.20;;;;;;4765162;29;20464;-64
2022/08/12 11:42:44;;;;;;;3.33;3.13;;;24.40;41.10;;;;;;4765964;29;20833;-66
2022/08/12 11:45:10;;;;;;;4.00;3.80;;;24.40;41.10;;;;;;4763368;29;20232;-61
2022/08/12 11:47:36;;;;;;;3.03;2.93;;;24.40;41.10;;;;;;4764200;29;20240;-61
2022/08/12 11:50:02;;;;;;;3.63;3.50;;;24.40;41.20;;;;;;4771197;29;20282;-60
2022/08/12 11:52:28;;;;;;;3.40;3.30;;;24.40;41.30;;;;;;4765221;29;20893;-58
2022/08/12 11:54:53;;;;;;;2.87;2.67;;;24.40;41.40;;;;;;4759502;29;20468;-60
2022/08/12 11:57:19;;;;;;;2.97;2.80;;;24.40;41.20;;;;;;4760674;29;20255;-61
2022/08/12 11:59:44;;;;;;;3.70;3.50;;;24.40;41.30;;;;;;4762604;29;20228;-61
2022/08/12 12:02:10;;;;;;;3.90;3.70;;;24.40;41.30;;;;;;4764241;29;20565;-63
2022/08/12 12:04:36;;;;;;;3.87;3.57;;;24.40;41.50;;;;;;4758478;29;20655;-68
2022/08/12 12:07:01;;;;;;;3.50;3.30;;;24.40;41.50;;;;;;4763446;29;20248;-60
2022/08/12 12:09:27;;;;;;;4.13;3.93;;;24.40;41.60;;;;;;4764391;29;20254;-59
2022/08/12 12:11:52;;;;;;;3.33;3.13;;;24.40;41.60;;;;;;4767211;29;20293;-58
2022/08/12 12:14:18;;;;;;;3.10;2.90;;;24.40;41.40;;;;;;4766365;29;20239;-63
2022/08/12 12:16:43;;;;;;;3.10;2.90;;;24.40;41.30;;;;;;4766588;29;20308;-64
2022/08/12 12:19:09;;;;;;;3.43;3.23;;;24.40;41.30;;;;;;4765503;29;20236;-62
2022/08/12 12:21:34;;;;;;;3.80;3.60;;;24.40;41.40;;;;;;4764967;29;20228;-62
2022/08/12 12:24:00;;;;;;;3.10;2.90;;;24.40;41.50;;;;;;4766217;29;20699;-66
2022/08/12 12:26:26;;;;;;;3.03;2.93;;;24.40;41.30;;;;;;4766427;29;20750;-61
2022/08/12 12:28:51;;;;;;;3.10;2.90;;;24.40;41.30;;;;;;4765210;29;20224;-59
2022/08/12 12:31:17;;;;;;;3.30;3.10;;;24.40;41.30;;;;;;4759215;29;20236;-70
2022/08/12 12:33:43;;;;;;;3.23;3.07;;;24.40;41.40;;;;;;4769359;29;20301;-62
2022/08/12 12:36:08;;;;;;;3.63;3.43;;;24.40;41.50;;;;;;4763622;29;20254;-64
2022/08/12 12:38:34;;;;;;;3.83;3.43;;;24.40;41.50;;;;;;4763618;29;20698;-76
2022/08/12 12:41:00;;;;;;;3.67;3.47;;;24.40;41.50;;;;;;4760233;29;20223;-61
2022/08/12 12:43:25;;;;;;;3.87;3.67;;;24.40;41.60;;;;;;4763901;29;20228;-63
2022/08/12 12:45:51;;;;;;;3.67;3.47;;;24.40;41.60;;;;;;4769776;29;20251;-59
2022/08/12 12:48:19;;;;;;;3.80;3.60;;;24.40;41.70;;;;;;4760555;29;20233;-63
2022/08/12 12:53:39;;;;;;;3.60;3.40;;;24.40;41.70;;;;;;4762942;29;20471;-58
2022/08/12 12:56:11;;;;;;;3.57;3.37;;;24.40;41.80;;;;;;4767814;29;20462;-58
2022/08/12 12:58:38;;;;;;;3.50;3.40;;;24.40;41.80;;;;;;4769551;29;20478;-58
2022/08/12 13:01:04;;;;;;;3.00;2.90;;;24.40;41.80;;;;;;4770988;29;20565;-61
2022/08/12 13:03:34;;;;;;;3.67;3.47;;;24.40;41.90;;;;;;4770316;29;20472;-61
2022/08/12 13:06:00;;;;;;;3.97;3.77;;;24.40;41.90;;;;;;4767565;29;20227;-57
2022/08/12 13:08:29;;;;;;;2.90;2.80;;;24.40;42.00;;;;;;4764868;29;21036;-59
2022/08/12 13:11:03;;;;;;;3.13;3.03;;;24.40;42.00;;;;;;4761919;29;20476;-59
2022/08/12 13:13:31;;;;;;;3.87;3.67;;;24.30;41.90;;;;;;4759532;29;20468;-62
2022/08/12 13:15:59;;;;;;;3.97;3.77;;;24.30;41.90;;;;;;4764513;29;20537;-58
2022/08/12 13:18:27;;;;;;;3.60;3.40;;;24.30;42.00;;;;;;4767400;29;20461;-59
2022/08/12 13:20:52;;;;;;;2.90;2.80;;;24.30;42.00;;;;;;4765887;29;20504;-65
2022/08/12 13:23:19;;;;;;;2.90;2.80;;;24.30;42.00;;;;;;4761516;29;20570;-58
2022/08/12 13:25:45;;;;;;;2.87;2.77;;;24.30;42.10;;;;;;4765883;29;20927;-66
2022/08/12 13:28:27;;;;;;;3.70;3.50;;;24.30;42.10;;;;;;4769756;29;20472;-59
2022/08/12 13:30:56;;;;;;;3.03;2.93;;;24.30;42.00;;;;;;4766764;29;20452;-60
2022/08/12 13:33:24;;;;;;;3.70;3.50;;;24.30;42.10;;;;;;4769125;29;20540;-60
2022/08/12 13:35:59;;;;;;;3.50;3.30;;;24.30;42.20;;;;;;4760842;29;20472;-58
2022/08/12 13:38:37;;;;;;;3.33;3.23;;;24.30;42.20;;;;;;4760949;29;20563;-59
2022/08/12 13:41:04;;;;;;;4.03;3.83;;;24.30;42.20;;;;;;4767211;29;20960;-59
2022/08/12 13:43:31;;;;;;;3.80;3.60;;;24.30;42.30;;;;;;4763151;29;20479;-65
2022/08/12 13:45:58;;;;;;;3.97;3.77;;;24.30;42.30;;;;;;4765454;29;20484;-59
2022/08/12 13:48:23;;;;;;;3.80;3.60;;;24.30;42.30;;;;;;4762180;29;20472;-64
2022/08/12 13:50:49;;;;;;;3.63;3.43;;;24.30;42.30;;;;;;4766220;29;20486;-63
2022/08/12 13:53:17;;;;;;;3.17;3.07;;;24.30;42.40;;;;;;4768280;29;20281;-61
2022/08/12 13:55:46;;;;;;;3.60;3.40;;;24.30;42.30;;;;;;4757968;29;20290;-62
2022/08/12 13:58:16;;;;;;;3.60;3.40;;;24.30;42.30;;;;;;4760960;29;20472;-58
2022/08/12 14:00:49;;;;;;;4.00;3.80;;;24.30;42.50;;;;;;4760579;29;20460;-61
2022/08/12 14:03:20;;;;;;;4.10;3.90;;;24.30;42.50;;;;;;4764719;29;20464;-59
2022/08/12 14:05:47;;;;;;;4.07;3.87;;;24.30;42.50;;;;;;4762947;29;20546;-62
2022/08/12 14:08:14;;;;;;;3.90;3.70;;;24.30;42.50;;;;;;4769801;29;20467;-58
2022/08/12 14:10:45;;;;;;;4.33;4.00;;;24.30;42.50;;;;;;4765413;29;20473;-60
2022/08/12 14:13:13;;;;;;;3.97;3.77;;;24.30;42.50;;;;;;4774978;29;20472;-58
2022/08/12 14:15:41;;;;;;;4.20;4.00;;;24.30;42.50;;;;;;4765887;29;20472;-65
2022/08/12 14:18:19;;;;;;;4.17;3.97;;;24.30;42.60;;;;;;4762233;29;21691;-63
2022/08/12 14:20:47;;;;;;;3.80;3.60;;;24.30;42.60;;;;;;4762428;29;20809;-59
2022/08/12 14:23:14;;;;;;;3.57;3.37;;;24.30;42.60;;;;;;4756583;29;20491;-72
2022/08/12 14:25:42;;;;;;;4.30;4.10;;;24.30;42.70;;;;;;4756579;29;20456;-58
2022/08/12 14:28:15;;;;;;;4.03;3.83;;;24.30;42.70;;;;;;4764305;29;20487;-62
2022/08/12 14:31:01;;;;;;;3.73;3.53;;;24.30;42.60;;;;;;4764709;29;20472;-66
2022/08/12 14:33:34;;;;;;;3.83;3.63;;;24.30;42.70;;;;;;4759677;29;20456;-71
2022/08/12 14:36:01;;;;;;;4.00;3.80;;;24.40;42.70;;;;;;4759665;29;20469;-59
2022/08/12 14:38:28;;;;;;;4.40;4.20;;;24.30;42.70;;;;;;4777092;29;20901;-64
2022/08/12 14:40:57;;;;;;;4.60;4.40;;;24.30;42.70;;;;;;4761814;29;20468;-61
2022/08/12 14:43:32;;;;;;;4.40;4.17;;;24.30;42.80;;;;;;4762253;29;20474;-58
2022/08/12 14:46:00;;;;;;;3.97;3.77;;;24.30;42.80;;;;;;4761656;29;20469;-64
2022/08/12 14:48:28;;;;;;;3.97;3.77;;;24.30;42.80;;;;;;4763670;29;20468;-58
2022/08/12 14:50:55;;;;;;;3.87;3.67;;;24.30;42.90;;;;;;4765669;29;20448;-62
2022/08/12 14:53:22;;;;;;;4.00;3.80;;;24.30;42.90;;;;;;4763351;29;20470;-62
2022/08/12 14:55:48;;;;;;;3.63;3.43;;;24.40;43.00;;;;;;4755320;29;20961;-58
2022/08/12 14:58:15;;;;;;;4.00;3.80;;;24.30;42.90;;;;;;4765378;29;20496;-68
2022/08/12 15:03:26;;;;;;;4.47;4.17;;;24.30;42.90;;;;;;4761283;29;20468;-60
2022/08/12 15:05:57;;;;;;;3.50;3.30;;;24.30;42.90;;;;;;4762907;29;20494;-64
2022/08/12 15:08:32;;;;;;;3.50;3.30;;;24.30;42.90;;;;;;4764321;29;20476;-63
2022/08/12 15:11:01;;;;;;;4.07;3.87;;;24.40;43.00;;;;;;4763421;29;20549;-59